createdAt,value
2023-11-17T00:03:53.746Z,2.58
2023-11-17T00:08:56.942Z,2.47
2023-11-17T00:13:59.974Z,2.40
2023-11-17T00:19:04.124Z,2.60
2023-11-17T00:24:07.643Z,2.47
2023-11-17T00:29:11.633Z,2.30
2023-11-17T00:34:14.550Z,2.38
2023-11-17T00:39:18.714Z,3.13
2023-11-17T00:44:21.549Z,3.00
2023-11-17T00:49:25.711Z,2.10
2023-11-17T00:54:29.130Z,2.50
2023-11-17T00:59:33.788Z,2.85
2023-11-17T01:04:36.536Z,2.72
2023-11-17T01:20:17.397Z,3.35
2023-11-17T01:25:20.088Z,2.10
2023-11-17T01:30:24.994Z,2.22
2023-11-17T01:35:29.235Z,1.80
2023-11-17T01:40:32.527Z,2.20
2023-11-17T01:45:35.419Z,2.60
2023-11-17T01:50:38.680Z,3.17
2023-11-17T01:55:41.608Z,3.30
2023-11-17T02:00:44.278Z,2.95
2023-11-17T02:05:50.897Z,3.00
2023-11-17T02:11:26.310Z,3.28
2023-11-17T02:16:34.861Z,2.30
2023-11-17T02:21:40.624Z,2.30
2023-11-17T02:27:08.596Z,2.20
2023-11-17T02:32:17.292Z,1.80
2023-11-17T02:37:26.309Z,1.83
2023-11-17T02:42:30.634Z,2.40
2023-11-17T02:47:37.164Z,2.10
2023-11-17T02:52:59.072Z,2.65
2023-11-17T02:58:02.432Z,2.20
2023-11-17T03:03:05.704Z,2.20
2023-11-17T03:08:09.219Z,3.13
2023-11-17T03:13:17.689Z,2.50
2023-11-17T03:18:21.228Z,2.58
2023-11-17T03:23:24.431Z,2.75
2023-11-17T03:28:27.192Z,2.60
2023-11-17T03:33:33.903Z,2.50
2023-11-17T03:38:37.008Z,2.92
2023-11-17T03:43:39.890Z,3.30
2023-11-17T03:48:42.874Z,2.92
2023-11-17T03:53:45.600Z,3.55
2023-11-17T03:58:48.730Z,2.80
2023-11-17T04:03:51.602Z,2.35
2023-11-17T04:08:55.445Z,2.42
2023-11-17T04:13:58.648Z,2.15
2023-11-17T04:19:01.825Z,2.22
2023-11-17T04:24:04.769Z,2.45
2023-11-17T04:29:08.619Z,3.08
2023-11-17T04:34:14.503Z,3.15
2023-11-17T04:39:25.864Z,2.55
2023-11-17T04:44:28.788Z,3.20
2023-11-17T04:49:31.759Z,2.63
2023-11-17T04:54:34.820Z,3.90
2023-11-17T04:59:37.790Z,3.15
2023-11-17T05:04:41.544Z,2.80
2023-11-17T05:09:44.708Z,2.00
2023-11-17T05:14:48.466Z,2.58
2023-11-17T05:19:51.439Z,2.38
2023-11-17T05:24:57.284Z,2.58
2023-11-17T05:30:00.549Z,2.25
2023-11-17T05:35:04.235Z,2.67
2023-11-17T05:40:07.485Z,2.47
2023-11-17T05:45:13.900Z,2.78
2023-11-17T05:50:17.113Z,2.65
2023-11-17T05:55:29.132Z,2.92
2023-11-17T06:00:34.464Z,3.40
2023-11-17T06:05:37.968Z,2.83
2023-11-17T06:10:41.041Z,2.90
2023-11-17T06:15:43.925Z,3.25
2023-11-17T06:20:48.580Z,2.40
2023-11-17T06:30:54.366Z,3.08
2023-11-17T06:35:57.488Z,3.42
2023-11-17T06:41:01.019Z,3.78
2023-11-17T06:46:04.217Z,3.88
2023-11-17T06:51:07.411Z,3.95
2023-11-17T06:56:11.564Z,4.47
2023-11-17T07:01:16.217Z,4.53
2023-11-17T07:06:19.441Z,4.10
2023-11-17T07:11:22.249Z,4.93
2023-11-17T07:16:35.025Z,4.97
2023-11-17T07:21:44.080Z,3.90
2023-11-17T07:26:47.709Z,4.75
2023-11-17T07:31:52.980Z,4.53
2023-11-17T07:36:56.247Z,4.45
2023-11-17T07:41:59.228Z,5.13
2023-11-17T07:47:06.247Z,4.65
2023-11-17T07:52:09.493Z,4.65
2023-11-17T07:57:12.335Z,4.57
2023-11-17T08:02:16.465Z,4.55
2023-11-17T08:07:19.392Z,4.03
2023-11-17T08:12:22.522Z,5.07
2023-11-17T08:17:25.381Z,4.63
2023-11-17T08:22:31.505Z,4.70
2023-11-17T08:27:34.404Z,4.15
2023-11-17T08:32:40.872Z,3.95
2023-11-17T08:37:43.944Z,3.80
2023-11-17T08:42:47.723Z,3.50
2023-11-17T08:47:50.649Z,4.05
2023-11-17T08:52:54.095Z,4.57
2023-11-17T08:57:57.049Z,6.38
2023-11-17T09:03:00.161Z,4.30
2023-11-17T09:08:03.253Z,5.90
2023-11-17T09:13:06.760Z,3.95
2023-11-17T09:18:09.508Z,3.70
2023-11-17T09:23:13.802Z,3.88
2023-11-17T09:28:17.717Z,4.15
2023-11-17T09:33:20.751Z,3.47
2023-11-17T09:38:27.991Z,4.03
2023-11-17T09:43:45.026Z,4.53
2023-11-17T09:48:48.400Z,4.00
2023-11-17T09:53:53.017Z,5.28
2023-11-17T09:58:56.421Z,4.88
2023-11-17T10:04:00.803Z,9.45
2023-11-17T10:09:04.474Z,5.72
2023-11-17T10:14:08.263Z,5.38
2023-11-17T10:19:15.154Z,5.78
2023-11-17T10:24:18.346Z,6.60
2023-11-17T10:29:21.544Z,7.00
2023-11-17T10:34:25.098Z,6.85
2023-11-17T10:39:27.886Z,7.32
2023-11-17T10:44:34.643Z,7.68
2023-11-17T10:49:37.506Z,7.05
2023-11-17T10:54:49.111Z,6.78
2023-11-17T10:59:58.184Z,7.45
2023-11-17T11:05:04.945Z,7.30
2023-11-17T11:10:17.091Z,8.80
2023-11-17T11:15:21.583Z,9.05
2023-11-17T11:20:25.947Z,8.55
2023-11-17T11:35:35.792Z,9.35
2023-11-17T11:40:43.158Z,10.82
2023-11-17T11:45:46.466Z,9.00
2023-11-17T11:50:59.112Z,10.63
2023-11-17T11:56:03.202Z,7.72
2023-11-17T12:01:08.569Z,8.73
2023-11-17T12:06:11.393Z,9.30
2023-11-17T12:11:14.859Z,12.70
2023-11-17T12:16:20.759Z,8.73
2023-11-17T12:21:24.582Z,10.80
2023-11-17T12:26:29.348Z,21.15
2023-11-17T12:31:32.490Z,9.82
2023-11-17T12:36:37.285Z,8.75
2023-11-17T12:41:40.209Z,9.85
2023-11-17T12:46:44.280Z,9.77
2023-11-17T12:51:48.015Z,9.02
2023-11-17T12:56:52.745Z,9.52
2023-11-17T13:01:55.624Z,7.88
2023-11-17T13:06:58.905Z,8.20
2023-11-17T13:12:01.713Z,9.15
2023-11-17T13:17:05.588Z,8.82
2023-11-17T13:22:08.734Z,8.90
2023-11-17T13:27:13.922Z,8.75
2023-11-17T13:32:20.138Z,8.82
2023-11-17T13:37:22.966Z,11.02
2023-11-17T13:42:26.529Z,9.73
2023-11-17T13:47:30.901Z,9.23
2023-11-17T13:52:34.185Z,9.90
2023-11-17T13:57:37.905Z,9.65
2023-11-17T14:02:43.297Z,9.80
2023-11-17T14:07:46.318Z,9.75
2023-11-17T14:12:51.145Z,9.85
2023-11-17T14:17:54.083Z,9.02
2023-11-17T14:22:57.020Z,10.00
2023-11-17T14:28:00.034Z,8.00
2023-11-17T14:33:04.671Z,7.90
2023-11-17T14:38:09.428Z,7.95
2023-11-17T14:43:12.797Z,7.68
2023-11-17T14:48:17.881Z,8.15
2023-11-17T14:53:21.018Z,8.45
2023-11-17T14:58:24.207Z,8.30
2023-11-17T15:03:29.157Z,8.25
2023-11-17T15:08:32.502Z,4.57
2023-11-17T15:13:35.521Z,3.90
2023-11-17T15:18:40.015Z,3.63
2023-11-17T15:28:46.700Z,3.30
2023-11-17T15:33:49.734Z,3.50
2023-11-17T15:38:59.641Z,3.50
2023-11-17T15:44:06.426Z,3.67
2023-11-17T15:49:12.906Z,3.50
2023-11-17T15:54:18.317Z,3.38
2023-11-17T15:59:22.741Z,3.33
2023-11-17T16:04:25.882Z,3.40
2023-11-17T16:09:30.224Z,3.65
2023-11-17T16:19:35.850Z,2.80
2023-11-17T16:24:40.755Z,3.17
2023-11-17T16:29:43.925Z,4.05
2023-11-17T16:34:49.504Z,4.03
2023-11-17T16:39:52.753Z,3.70
2023-11-17T16:44:55.586Z,3.53
2023-11-17T16:49:58.680Z,4.00
2023-11-17T16:55:01.653Z,4.50
2023-11-17T17:05:17.526Z,4.20
2023-11-17T17:10:23.526Z,3.88
2023-11-17T17:15:28.508Z,3.33
2023-11-17T17:20:31.595Z,3.80
2023-11-17T17:25:38.557Z,4.20
2023-11-17T17:30:44.933Z,4.43
2023-11-17T17:35:48.284Z,3.97
2023-11-17T17:40:51.613Z,3.55
2023-11-17T17:45:55.482Z,3.25
2023-11-17T17:51:02.093Z,3.45
2023-11-17T17:56:05.329Z,3.65
2023-11-17T18:01:09.086Z,3.63
2023-11-17T18:06:15.894Z,4.05
2023-11-17T18:11:30.637Z,4.07
2023-11-17T18:16:34.086Z,4.20
2023-11-17T18:21:37.210Z,4.03
2023-11-17T18:26:59.174Z,3.72
2023-11-17T18:32:04.393Z,3.88
2023-11-17T18:37:07.707Z,3.97
2023-11-17T18:42:11.735Z,4.00
2023-11-17T18:47:15.413Z,3.58
2023-11-17T18:52:20.770Z,3.80
2023-11-17T18:57:23.604Z,4.05
2023-11-17T19:02:28.434Z,4.28
2023-11-17T19:07:32.107Z,4.70
2023-11-17T19:12:41.225Z,4.55
2023-11-17T19:17:46.050Z,3.63
2023-11-17T19:22:49.730Z,4.15
2023-11-17T19:27:52.555Z,4.20
2023-11-17T19:32:57.594Z,3.63
2023-11-17T19:38:00.592Z,3.63
2023-11-17T19:43:05.773Z,3.58
2023-11-17T19:48:11.579Z,3.75
2023-11-17T19:53:16.706Z,4.28
2023-11-17T19:58:20.498Z,4.05
2023-11-17T20:03:23.598Z,4.47
2023-11-17T20:08:26.425Z,4.43
2023-11-17T20:13:29.189Z,4.32
2023-11-17T20:18:33.595Z,4.43
2023-11-17T20:23:38.118Z,4.07
2023-11-17T20:28:41.379Z,5.57
2023-11-17T20:33:44.736Z,4.78
2023-11-17T20:38:47.865Z,5.10
2023-11-17T20:43:51.202Z,5.03
2023-11-17T20:48:54.870Z,4.82
2023-11-17T20:53:59.192Z,5.43
2023-11-17T20:59:02.713Z,4.97
2023-11-17T21:04:11.010Z,5.90
2023-11-17T21:09:17.385Z,4.63
2023-11-17T21:14:20.757Z,4.88
2023-11-17T21:19:23.764Z,5.95
2023-11-17T21:24:28.217Z,4.90
2023-11-17T21:34:36.814Z,5.63
2023-11-17T21:39:40.153Z,5.47
2023-11-17T21:44:43.281Z,5.63
2023-11-17T21:49:46.382Z,4.82
2023-11-17T21:54:49.756Z,6.18
2023-11-17T21:59:52.648Z,5.75
2023-11-17T22:04:55.556Z,5.93
2023-11-17T22:10:02.448Z,5.78
2023-11-17T22:15:10.611Z,5.43
2023-11-17T22:20:19.394Z,5.18
2023-11-17T22:25:23.726Z,6.07
2023-11-17T22:30:27.529Z,5.90
2023-11-17T22:35:30.788Z,5.68
2023-11-17T22:40:33.974Z,5.38
2023-11-17T22:45:37.569Z,5.85
2023-11-17T22:50:40.356Z,5.03
2023-11-17T22:55:43.046Z,5.50
2023-11-17T23:00:49.483Z,5.28
2023-11-17T23:05:53.568Z,5.57
2023-11-17T23:10:56.957Z,5.20
2023-11-17T23:15:59.934Z,5.50
2023-11-17T23:21:04.444Z,5.70
2023-11-17T23:26:10.472Z,5.03
2023-11-17T23:31:16.171Z,5.50
2023-11-17T23:36:20.878Z,5.00
2023-11-17T23:41:23.922Z,4.82
2023-11-17T23:46:28.036Z,5.28
2023-11-17T23:51:30.972Z,5.22
2023-11-17T23:56:33.949Z,5.00
